createdAt,value
2023-04-16T00:00:40.586Z,99895.75
2023-04-16T00:03:11.241Z,99897.50
2023-04-16T00:05:39.098Z,99898.31
2023-04-16T00:08:06.948Z,99907.09
2023-04-16T00:10:35.861Z,99900.09
2023-04-16T00:13:03.477Z,99911.34
2023-04-16T00:15:31.065Z,99922.59
2023-04-16T00:17:58.784Z,99922.63
2023-04-16T00:20:26.325Z,99918.22
2023-04-16T00:22:54.061Z,99927.78
2023-04-16T00:25:20.902Z,99933.16
2023-04-16T00:27:48.594Z,99938.44
2023-04-16T00:30:15.323Z,99937.59
2023-04-16T00:32:42.214Z,99941.91
2023-04-16T00:35:09.162Z,99939.31
2023-04-16T00:37:35.953Z,99941.91
2023-04-16T00:40:03.753Z,99947.13
2023-04-16T00:42:30.526Z,99934.94
2023-04-16T00:44:57.265Z,99941.03
2023-04-16T00:47:24.394Z,99935.78
2023-04-16T00:49:51.131Z,99921.91
2023-04-16T00:52:17.953Z,99914.94
2023-04-16T00:54:44.970Z,99908.84
2023-04-16T00:57:14.665Z,99926.28
2023-04-16T00:59:42.537Z,99934.97
2023-04-16T01:02:10.303Z,99930.53
2023-04-16T01:04:37.997Z,99929.75
2023-04-16T01:07:05.746Z,99927.94
2023-04-16T01:09:33.349Z,99918.41
2023-04-16T01:12:00.078Z,99917.56
2023-04-16T01:14:27.864Z,99904.53
2023-04-16T01:16:55.434Z,99909.75
2023-04-16T01:19:22.193Z,99905.44
2023-04-16T01:21:49.101Z,99912.38
2023-04-16T01:24:16.721Z,99904.56
2023-04-16T01:26:43.537Z,99901.09
2023-04-16T01:29:10.771Z,99904.56
2023-04-16T01:31:37.775Z,99902.81
2023-04-16T01:34:06.199Z,99899.31
2023-04-16T01:36:32.897Z,99906.25
2023-04-16T01:38:59.783Z,99902.78
2023-04-16T01:41:27.379Z,99897.59
2023-04-16T01:43:55.156Z,99900.22
2023-04-16T01:46:27.990Z,99898.44
2023-04-16T01:48:55.524Z,99903.59
2023-04-16T01:51:23.294Z,99899.25
2023-04-16T01:53:50.719Z,99901.00
2023-04-16T01:56:17.542Z,99896.66
2023-04-16T01:58:46.315Z,99895.75
2023-04-16T02:01:14.191Z,99894.00
2023-04-16T02:03:42.364Z,99900.84
2023-04-16T02:06:09.298Z,99892.19
2023-04-16T02:08:36.327Z,99899.97
2023-04-16T02:11:04.125Z,99887.81
2023-04-16T02:13:31.730Z,99893.88
2023-04-16T02:15:59.515Z,99885.25
2023-04-16T02:18:27.369Z,99884.41
2023-04-16T02:20:57.841Z,99886.13
2023-04-16T02:23:25.520Z,99884.41
2023-04-16T02:25:53.272Z,99873.16
2023-04-16T02:28:20.136Z,99871.38
2023-04-16T02:30:47.718Z,99873.13
2023-04-16T02:33:14.599Z,99864.38
2023-04-16T02:35:42.392Z,99862.66
2023-04-16T02:38:10.073Z,99861.72
2023-04-16T02:40:37.351Z,99854.78
2023-04-16T02:43:04.299Z,99859.13
2023-04-16T02:45:31.969Z,99858.31
2023-04-16T02:48:00.160Z,99855.59
2023-04-16T02:50:27.976Z,99852.13
2023-04-16T02:52:55.695Z,99864.25
2023-04-16T02:55:22.466Z,99865.03
2023-04-16T02:57:50.140Z,99862.41
2023-04-16T03:00:18.031Z,99870.28
2023-04-16T03:02:47.146Z,99870.34
2023-04-16T03:05:14.940Z,99869.56
2023-04-16T03:07:42.572Z,99860.88
2023-04-16T03:10:09.592Z,99868.59
2023-04-16T03:12:36.523Z,99862.53
2023-04-16T03:15:04.696Z,99865.94
2023-04-16T03:17:32.575Z,99869.44
2023-04-16T03:20:00.309Z,99862.59
2023-04-16T03:22:27.109Z,99867.81
2023-04-16T03:24:55.007Z,99866.16
2023-04-16T03:27:22.725Z,99864.41
2023-04-16T03:29:49.584Z,99867.06
2023-04-16T03:32:17.549Z,99866.09
2023-04-16T03:34:44.532Z,99864.38
2023-04-16T03:37:13.978Z,99871.38
2023-04-16T03:39:41.862Z,99871.38
2023-04-16T03:42:08.694Z,99869.66
2023-04-16T03:44:36.448Z,99870.53
2023-04-16T03:47:04.078Z,99874.00
2023-04-16T03:49:31.809Z,99886.16
2023-04-16T03:51:58.623Z,99886.03
2023-04-16T03:54:25.582Z,99882.69
2023-04-16T03:56:52.366Z,99879.19
2023-04-16T03:59:20.042Z,99886.97
2023-04-16T04:01:46.877Z,99875.66
2023-04-16T04:04:15.449Z,99886.13
2023-04-16T04:06:42.383Z,99886.16
2023-04-16T04:09:09.279Z,99875.75
2023-04-16T04:11:37.126Z,99872.31
2023-04-16T04:14:05.451Z,99886.22
2023-04-16T04:16:33.177Z,99888.00
2023-04-16T04:19:01.251Z,99883.63
2023-04-16T04:21:28.959Z,99890.59
2023-04-16T04:23:56.237Z,99887.09
2023-04-16T04:26:24.072Z,99891.44
2023-04-16T04:28:51.102Z,99895.75
2023-04-16T04:31:18.096Z,99894.00
2023-04-16T04:33:45.124Z,99900.09
2023-04-16T04:36:11.907Z,99896.66
2023-04-16T04:38:39.608Z,99895.81
2023-04-16T04:41:07.260Z,99895.81
2023-04-16T04:43:34.094Z,99901.91
2023-04-16T04:46:01.875Z,99904.56
2023-04-16T04:48:28.820Z,99907.09
2023-04-16T04:50:55.913Z,99908.84
2023-04-16T04:53:22.779Z,99902.75
2023-04-16T04:55:53.216Z,99908.84
2023-04-16T04:58:21.824Z,99907.97
2023-04-16T05:00:48.721Z,99914.94
2023-04-16T05:03:22.001Z,99911.50
2023-04-16T05:05:49.774Z,99915.78
2023-04-16T05:08:16.810Z,99919.31
2023-04-16T05:10:46.455Z,99921.03
2023-04-16T05:13:13.272Z,99917.59
2023-04-16T05:15:42.180Z,99925.41
2023-04-16T05:18:09.103Z,99923.66
2023-04-16T05:20:37.853Z,99929.75
2023-04-16T05:23:05.539Z,99922.78
2023-04-16T05:25:32.679Z,99930.66
2023-04-16T05:28:00.621Z,99935.84
2023-04-16T05:30:29.402Z,99932.38
2023-04-16T05:32:57.064Z,99931.47
2023-04-16T05:35:25.955Z,99935.81
2023-04-16T05:37:54.843Z,99937.53
2023-04-16T05:40:21.976Z,99939.31
2023-04-16T05:42:48.916Z,99937.56
2023-04-16T05:45:16.118Z,99941.03
2023-04-16T05:47:44.078Z,99939.25
2023-04-16T05:50:14.729Z,99944.47
2023-04-16T05:52:41.795Z,99946.22
2023-04-16T05:55:10.657Z,99947.06
2023-04-16T05:57:38.358Z,99942.72
2023-04-16T06:00:07.036Z,99945.34
2023-04-16T06:02:35.126Z,99943.56
2023-04-16T06:05:05.243Z,99943.63
2023-04-16T06:07:32.918Z,99954.91
2023-04-16T06:09:59.914Z,99953.16
2023-04-16T06:12:29.471Z,99949.66
2023-04-16T06:14:56.607Z,99959.22
2023-04-16T06:17:24.390Z,99952.28
2023-04-16T06:19:53.262Z,99950.50
2023-04-16T06:22:21.298Z,99959.16
2023-04-16T06:24:48.266Z,99958.25
2023-04-16T06:27:15.249Z,99961.78
2023-04-16T06:29:42.718Z,99957.41
2023-04-16T06:32:09.704Z,99950.38
2023-04-16T06:34:39.600Z,99953.84
2023-04-16T06:37:09.072Z,99941.63
2023-04-16T06:39:38.217Z,99943.34
2023-04-16T06:42:07.760Z,99952.97
2023-04-16T06:44:36.761Z,99953.88
2023-04-16T06:47:03.821Z,99956.50
2023-04-16T06:49:33.588Z,99954.72
2023-04-16T06:52:00.786Z,99952.09
2023-04-16T06:54:28.523Z,99955.56
2023-04-16T06:56:56.617Z,99949.44
2023-04-16T06:59:25.610Z,99960.00
2023-04-16T07:01:53.472Z,99960.84
2023-04-16T07:04:20.744Z,99954.69
2023-04-16T07:06:47.760Z,99952.84
2023-04-16T07:09:14.651Z,99957.09
2023-04-16T07:11:42.185Z,99953.59
2023-04-16T07:14:11.168Z,99953.31
2023-04-16T07:16:40.804Z,99961.16
2023-04-16T07:19:09.027Z,99955.03
2023-04-16T07:21:36.224Z,99956.56
2023-04-16T07:24:05.842Z,99954.97
2023-04-16T07:26:32.857Z,99960.16
2023-04-16T07:29:00.712Z,99960.91
2023-04-16T07:31:28.686Z,99970.06
2023-04-16T07:33:56.482Z,99976.22
2023-04-16T07:36:27.549Z,99969.19
2023-04-16T07:38:54.414Z,99965.44
2023-04-16T07:41:23.480Z,99969.69
2023-04-16T07:43:52.908Z,99971.16
2023-04-16T07:46:20.254Z,99972.78
2023-04-16T07:48:48.098Z,99974.75
2023-04-16T07:51:16.025Z,99965.81
2023-04-16T07:53:44.781Z,99967.56
2023-04-16T07:56:11.738Z,99974.47
2023-04-16T07:58:39.459Z,99964.50
2023-04-16T08:01:06.593Z,99965.69
2023-04-16T08:03:34.610Z,99973.50
2023-04-16T08:06:03.865Z,99971.72
2023-04-16T08:08:32.784Z,99979.59
2023-04-16T08:11:00.592Z,99982.47
2023-04-16T08:13:28.520Z,99981.22
2023-04-16T08:15:58.117Z,99983.59
2023-04-16T08:18:26.048Z,99976.28
2023-04-16T08:20:55.709Z,99981.22
2023-04-16T08:23:24.635Z,99977.25
2023-04-16T08:25:53.713Z,99978.63
2023-04-16T08:28:22.388Z,99969.09
2023-04-16T08:30:51.899Z,99970.19
2023-04-16T08:33:19.619Z,99976.34
2023-04-16T08:35:46.531Z,99977.91
2023-04-16T08:38:14.161Z,99981.94
2023-04-16T08:40:47.316Z,99982.81
2023-04-16T08:43:18.276Z,99987.53
2023-04-16T08:45:47.906Z,99986.16
2023-04-16T08:48:15.923Z,99990.78
2023-04-16T08:50:48.351Z,99995.38
2023-04-16T08:53:19.476Z,99997.38
2023-04-16T08:55:51.592Z,99997.06
2023-04-16T08:58:22.689Z,100001.34
2023-04-16T09:00:52.213Z,100004.78
2023-04-16T09:03:22.074Z,100006.75
2023-04-16T09:05:50.681Z,100005.63
2023-04-16T09:08:20.544Z,100009.06
2023-04-16T09:10:49.287Z,100008.78
2023-04-16T09:13:20.509Z,100016.59
2023-04-16T09:15:47.655Z,100018.13
2023-04-16T09:18:15.343Z,100015.28
2023-04-16T09:20:42.244Z,100024.00
2023-04-16T09:23:11.083Z,100020.16
2023-04-16T09:25:39.034Z,100020.72
2023-04-16T09:28:06.770Z,100026.03
2023-04-16T09:30:34.993Z,100029.25
2023-04-16T09:33:23.270Z,100022.69
2023-04-16T09:35:53.791Z,100027.44
2023-04-16T09:38:21.673Z,100026.97
2023-04-16T09:41:07.270Z,100025.41
2023-04-16T09:43:35.725Z,100027.78
2023-04-16T09:46:08.102Z,100021.22
2023-04-16T09:48:36.393Z,100024.13
2023-04-16T09:51:06.807Z,100020.78
2023-04-16T09:53:34.471Z,100016.47
2023-04-16T09:56:06.405Z,100015.19
2023-04-16T09:58:36.668Z,100011.19
2023-04-16T10:01:12.036Z,100013.22
2023-04-16T10:03:41.009Z,100003.03
2023-04-16T10:06:16.280Z,100009.34
2023-04-16T10:08:50.565Z,100011.97
2023-04-16T10:11:21.094Z,100010.50
2023-04-16T10:13:50.988Z,99998.47
2023-04-16T10:16:19.190Z,100002.47
2023-04-16T10:18:47.698Z,100005.75
2023-04-16T10:21:16.426Z,100003.00
2023-04-16T10:23:44.699Z,99998.88
2023-04-16T10:26:11.856Z,100007.56
2023-04-16T10:28:41.256Z,99998.53
2023-04-16T10:31:09.780Z,99997.00
2023-04-16T10:33:41.538Z,99991.09
2023-04-16T10:36:16.292Z,99996.34
2023-04-16T10:38:48.349Z,99988.94
2023-04-16T10:41:15.693Z,99988.31
2023-04-16T10:43:47.700Z,99982.47
2023-04-16T10:46:18.789Z,99984.81
2023-04-16T10:48:50.182Z,99976.09
2023-04-16T10:51:28.337Z,99976.53
2023-04-16T10:53:56.576Z,99974.88
2023-04-16T10:56:27.953Z,99981.75
2023-04-16T10:58:56.370Z,99970.63
2023-04-16T11:01:37.835Z,99964.91
2023-04-16T11:04:20.007Z,99964.19
2023-04-16T11:07:11.733Z,99964.59
2023-04-16T11:09:49.983Z,99961.94
2023-04-16T11:12:20.908Z,99955.59
2023-04-16T11:14:58.934Z,99964.50
2023-04-16T11:17:30.997Z,99961.88
2023-04-16T11:19:58.473Z,99953.75
2023-04-16T11:22:27.327Z,99951.94
2023-04-16T11:24:57.888Z,99953.28
2023-04-16T11:27:25.762Z,99956.84
2023-04-16T11:30:06.376Z,99966.81
2023-04-16T11:32:34.841Z,99952.34
2023-04-16T11:35:20.102Z,99957.25
2023-04-16T11:37:48.853Z,99954.25
2023-04-16T11:40:16.375Z,99963.41
2023-04-16T11:42:44.531Z,99964.19
2023-04-16T11:45:12.505Z,99955.31
2023-04-16T11:47:43.843Z,99958.25
2023-04-16T11:50:20.771Z,99957.19
2023-04-16T11:52:48.858Z,99954.31
2023-04-16T11:55:16.155Z,99961.41
2023-04-16T11:57:43.383Z,99964.13
2023-04-16T12:00:15.902Z,99958.38
2023-04-16T12:02:51.131Z,99956.56
2023-04-16T12:05:34.967Z,99954.13
2023-04-16T12:08:09.538Z,99953.00
2023-04-16T12:10:54.874Z,99953.13
2023-04-16T12:13:21.837Z,99946.34
2023-04-16T12:15:57.304Z,99934.28
2023-04-16T12:18:27.239Z,99941.69
2023-04-16T12:20:55.074Z,99938.22
2023-04-16T12:23:26.557Z,99945.22
2023-04-16T12:25:55.073Z,99951.69
2023-04-16T12:28:29.964Z,99941.91
2023-04-16T12:30:57.694Z,99944.41
2023-04-16T12:33:25.518Z,99942.72
2023-04-16T12:35:53.032Z,99945.47
2023-04-16T12:38:22.799Z,99935.69
2023-04-16T12:40:52.128Z,99931.41
2023-04-16T12:43:21.567Z,99930.69
2023-04-16T12:45:49.603Z,99929.50
2023-04-16T12:48:17.184Z,99929.03
2023-04-16T12:50:44.847Z,99905.91
2023-04-16T12:53:12.746Z,99905.91
2023-04-16T12:55:40.236Z,99912.34
2023-04-16T12:58:11.112Z,99907.97
2023-04-16T13:00:46.442Z,99903.41
2023-04-16T13:03:14.170Z,99904.53
2023-04-16T13:05:41.926Z,99900.75
2023-04-16T13:08:09.533Z,99909.63
2023-04-16T13:10:37.239Z,99905.25
2023-04-16T13:13:05.937Z,99907.03
2023-04-16T13:15:33.495Z,99904.28
2023-04-16T13:18:01.302Z,99895.53
2023-04-16T13:20:28.889Z,99903.72
2023-04-16T13:22:56.812Z,99906.03
2023-04-16T13:25:24.922Z,99898.88
2023-04-16T13:27:52.767Z,99887.25
2023-04-16T13:30:20.455Z,99892.19
2023-04-16T13:32:48.213Z,99891.22
2023-04-16T13:35:15.776Z,99898.22
2023-04-16T13:37:43.377Z,99892.59
2023-04-16T13:40:11.005Z,99896.06
2023-04-16T13:42:39.578Z,99905.28
2023-04-16T13:45:09.545Z,99910.97
2023-04-16T13:47:38.458Z,99909.78
2023-04-16T13:50:05.874Z,99914.84
2023-04-16T13:52:33.572Z,99908.59
2023-04-16T13:55:01.740Z,99908.66
2023-04-16T13:57:28.933Z,99915.16
2023-04-16T13:59:56.375Z,99914.56
2023-04-16T14:02:24.218Z,99927.34
2023-04-16T14:04:51.110Z,99914.50
2023-04-16T14:07:18.087Z,99917.66
2023-04-16T14:09:45.082Z,99912.13
2023-04-16T14:12:12.228Z,99913.19
2023-04-16T14:14:39.251Z,99916.59
2023-04-16T14:17:07.665Z,99913.84
2023-04-16T14:19:34.550Z,99902.13
2023-04-16T14:22:01.427Z,99901.78
2023-04-16T14:24:30.042Z,99917.56
2023-04-16T14:26:56.856Z,99913.63
2023-04-16T14:29:27.345Z,99919.78
2023-04-16T14:31:54.191Z,99939.09
2023-04-16T14:34:21.237Z,99927.47
2023-04-16T14:36:49.910Z,99940.75
2023-04-16T14:39:16.882Z,99956.88
2023-04-16T14:41:43.921Z,99973.28
2023-04-16T14:44:13.783Z,99955.69
2023-04-16T14:46:41.186Z,99950.69
2023-04-16T14:49:11.548Z,99957.31
2023-04-16T14:51:39.025Z,99966.09
2023-04-16T14:54:06.043Z,99960.91
2023-04-16T14:56:33.066Z,99953.91
2023-04-16T14:59:00.829Z,99948.25
2023-04-16T15:01:27.790Z,99943.34
2023-04-16T15:03:57.438Z,99938.09
2023-04-16T15:06:24.847Z,99928.75
2023-04-16T15:08:51.745Z,99930.81
2023-04-16T15:11:18.496Z,99932.59
2023-04-16T15:13:45.208Z,99934.06
2023-04-16T15:16:12.220Z,99931.75
2023-04-16T15:18:39.226Z,99924.66
2023-04-16T15:21:06.468Z,99926.97
2023-04-16T15:23:33.206Z,99923.75
2023-04-16T15:26:00.050Z,99921.44
2023-04-16T15:28:27.260Z,99919.06
2023-04-16T15:30:57.683Z,99924.88
2023-04-16T15:33:25.044Z,99921.75
2023-04-16T15:35:52.562Z,99929.47
2023-04-16T15:38:21.533Z,99926.97
2023-04-16T15:40:48.474Z,99926.91
2023-04-16T15:43:16.401Z,99927.56
2023-04-16T15:45:45.144Z,99924.50
2023-04-16T15:48:12.140Z,99924.34
2023-04-16T15:50:42.675Z,99932.56
2023-04-16T15:53:10.443Z,99922.94
2023-04-16T15:55:38.126Z,99914.44
2023-04-16T15:58:05.926Z,99916.91
2023-04-16T16:00:34.745Z,99910.44
2023-04-16T16:03:04.400Z,99913.72
2023-04-16T16:05:33.416Z,99911.03
2023-04-16T16:08:02.948Z,99914.28
2023-04-16T16:10:30.717Z,99907.50
2023-04-16T16:13:05.482Z,99904.16
2023-04-16T16:15:32.622Z,99894.75
2023-04-16T16:17:59.495Z,99891.66
2023-04-16T16:20:27.880Z,99901.56
2023-04-16T16:22:56.766Z,99908.09
2023-04-16T16:25:27.536Z,99908.81
2023-04-16T16:27:54.797Z,99912.75
2023-04-16T16:30:21.835Z,99902.38
2023-04-16T16:32:51.423Z,99905.91
2023-04-16T16:35:18.437Z,99900.78
2023-04-16T16:37:55.454Z,99904.69
2023-04-16T16:40:24.494Z,99902.06
2023-04-16T16:42:51.688Z,99914.94
2023-04-16T16:45:19.104Z,99907.88
2023-04-16T16:47:48.942Z,99910.84
2023-04-16T16:50:17.004Z,99909.41
2023-04-16T16:52:44.933Z,99915.16
2023-04-16T16:55:18.663Z,99913.66
2023-04-16T16:57:46.160Z,99922.50
2023-04-16T17:00:16.453Z,99924.97
2023-04-16T17:02:44.418Z,99929.78
2023-04-16T17:05:12.787Z,99928.16
2023-04-16T17:07:41.519Z,99926.50
2023-04-16T17:10:13.244Z,99940.34
2023-04-16T17:12:51.723Z,99934.09
2023-04-16T17:15:21.796Z,99929.09
2023-04-16T17:17:49.298Z,99938.50
2023-04-16T17:20:18.224Z,99931.56
2023-04-16T17:22:47.845Z,99938.34
2023-04-16T17:25:15.038Z,99935.59
2023-04-16T17:27:42.195Z,99939.22
2023-04-16T17:30:09.455Z,99938.25
2023-04-16T17:32:38.722Z,99942.13
2023-04-16T17:35:07.038Z,99946.38
2023-04-16T17:37:35.203Z,99943.63
2023-04-16T17:40:07.710Z,99936.28
2023-04-16T17:42:37.570Z,99947.66
2023-04-16T17:45:06.645Z,99953.06
2023-04-16T17:47:36.528Z,99955.31
2023-04-16T17:50:05.113Z,99955.13
2023-04-16T17:52:33.802Z,99957.81
2023-04-16T17:55:04.415Z,99958.34
2023-04-16T17:57:32.203Z,99956.13
2023-04-16T18:00:00.408Z,99953.63
2023-04-16T18:02:30.032Z,99950.44
2023-04-16T18:04:57.130Z,99956.19
2023-04-16T18:07:25.010Z,99958.16
2023-04-16T18:09:52.876Z,99948.69
2023-04-16T18:12:21.664Z,99949.56
2023-04-16T18:14:48.641Z,99940.06
2023-04-16T18:17:18.377Z,99938.06
2023-04-16T18:19:46.093Z,99942.47
2023-04-16T18:22:16.310Z,99948.25
2023-04-16T18:24:44.191Z,99939.69
2023-04-16T18:27:12.970Z,99937.31
2023-04-16T18:29:43.767Z,99939.00
2023-04-16T18:32:12.508Z,99927.59
2023-04-16T18:34:40.912Z,99927.09
2023-04-16T18:37:12.910Z,99922.63
2023-04-16T18:39:41.882Z,99921.72
2023-04-16T18:42:09.709Z,99917.13
2023-04-16T18:44:37.098Z,99914.34
2023-04-16T18:47:17.818Z,99901.25
2023-04-16T18:49:47.561Z,99889.03
2023-04-16T18:52:14.650Z,99910.06
2023-04-16T18:54:43.803Z,99905.00
2023-04-16T18:57:10.728Z,99912.69
2023-04-16T18:59:37.641Z,99910.09
2023-04-16T19:02:05.441Z,99909.19
2023-04-16T19:04:33.959Z,99913.72
2023-04-16T19:07:02.316Z,99903.00
2023-04-16T19:09:29.165Z,99893.78
2023-04-16T19:11:57.494Z,99886.69
2023-04-16T19:14:24.477Z,99899.75
2023-04-16T19:16:54.969Z,99888.34
2023-04-16T19:19:21.820Z,99889.94
2023-04-16T19:21:49.736Z,99882.97
2023-04-16T19:24:16.721Z,99884.50
2023-04-16T19:26:45.057Z,99880.34
2023-04-16T19:29:13.321Z,99868.84
2023-04-16T19:31:40.250Z,99869.06
2023-04-16T19:34:08.276Z,99868.94
2023-04-16T19:36:35.504Z,99873.41
2023-04-16T19:39:04.032Z,99873.28
2023-04-16T19:41:32.156Z,99865.38
2023-04-16T19:44:00.093Z,99870.41
2023-04-16T19:46:27.772Z,99872.88
2023-04-16T19:48:56.997Z,99864.31
2023-04-16T19:51:24.940Z,99873.81
2023-04-16T19:53:53.395Z,99871.13
2023-04-16T19:56:20.540Z,99869.03
2023-04-16T19:58:48.259Z,99862.97
2023-04-16T20:01:16.464Z,99871.94
2023-04-16T20:03:44.224Z,99870.31
2023-04-16T20:06:12.148Z,99871.72
2023-04-16T20:08:39.940Z,99869.72
2023-04-16T20:11:08.716Z,99862.94
2023-04-16T20:13:37.833Z,99875.13
2023-04-16T20:16:05.848Z,99883.72
2023-04-16T20:18:41.508Z,99863.00
2023-04-16T20:21:11.911Z,99870.75
2023-04-16T20:23:38.727Z,99874.13
2023-04-16T20:26:06.070Z,99871.53
2023-04-16T20:28:33.037Z,99883.56
2023-04-16T20:30:59.902Z,99868.97
2023-04-16T20:33:30.734Z,99882.75
2023-04-16T20:35:57.538Z,99878.63
2023-04-16T20:38:26.289Z,99886.41
2023-04-16T20:41:06.475Z,99888.84
2023-04-16T20:43:44.043Z,99878.28
2023-04-16T20:46:12.471Z,99888.94
2023-04-16T20:48:41.572Z,99891.47
2023-04-16T20:51:11.545Z,99881.78
2023-04-16T20:53:38.621Z,99880.16
2023-04-16T20:56:09.314Z,99887.13
2023-04-16T20:58:38.372Z,99883.34
2023-04-16T21:01:06.106Z,99882.56
2023-04-16T21:03:33.856Z,99884.22
2023-04-16T21:06:03.960Z,99881.44
2023-04-16T21:08:31.288Z,99888.47
2023-04-16T21:10:58.451Z,99873.41
2023-04-16T21:13:25.381Z,99883.88
2023-04-16T21:15:53.881Z,99886.56
2023-04-16T21:18:22.059Z,99877.72
2023-04-16T21:20:48.823Z,99891.69
2023-04-16T21:23:15.607Z,99895.00
2023-04-16T21:25:42.524Z,99893.22
2023-04-16T21:28:10.543Z,99890.66
2023-04-16T21:30:38.606Z,99890.81
2023-04-16T21:33:05.946Z,99894.50
2023-04-16T21:35:33.308Z,99897.91
2023-04-16T21:38:01.059Z,99888.41
2023-04-16T21:40:28.771Z,99886.00
2023-04-16T21:42:59.184Z,99889.13
2023-04-16T21:45:26.004Z,99885.81
2023-04-16T21:47:54.490Z,99883.97
2023-04-16T21:50:21.342Z,99882.88
2023-04-16T21:52:48.625Z,99885.00
2023-04-16T21:55:16.728Z,99882.13
2023-04-16T21:57:43.732Z,99875.50
2023-04-16T22:00:14.478Z,99885.53
2023-04-16T22:02:43.004Z,99879.16
2023-04-16T22:05:11.442Z,99885.22
2023-04-16T22:07:39.170Z,99884.50
2023-04-16T22:10:09.054Z,99885.44
2023-04-16T22:12:39.991Z,99878.16
2023-04-16T22:15:08.169Z,99873.66
2023-04-16T22:17:35.494Z,99881.03
2023-04-16T22:20:06.748Z,99875.66
2023-04-16T22:22:34.494Z,99877.13
2023-04-16T22:25:02.414Z,99870.91
2023-04-16T22:27:29.208Z,99869.06
2023-04-16T22:29:56.980Z,99867.56
2023-04-16T22:32:23.923Z,99864.66
2023-04-16T22:34:50.861Z,99869.56
2023-04-16T22:37:17.795Z,99869.28
2023-04-16T22:39:45.644Z,99870.06
2023-04-16T22:42:12.446Z,99870.25
2023-04-16T22:44:40.106Z,99867.69
2023-04-16T22:47:07.790Z,99860.09
2023-04-16T22:49:35.106Z,99859.75
2023-04-16T22:52:02.794Z,99857.25
2023-04-16T22:54:30.581Z,99849.59
2023-04-16T22:56:58.064Z,99857.28
2023-04-16T22:59:27.841Z,99857.09
2023-04-16T23:01:54.703Z,99853.59
2023-04-16T23:04:23.580Z,99859.13
2023-04-16T23:06:50.628Z,99868.56
2023-04-16T23:09:17.534Z,99868.47
2023-04-16T23:11:45.787Z,99862.84
2023-04-16T23:14:15.617Z,99864.84
2023-04-16T23:16:43.510Z,99859.63
2023-04-16T23:19:14.929Z,99861.19
2023-04-16T23:21:42.023Z,99859.44
2023-04-16T23:24:12.393Z,99850.38
2023-04-16T23:26:39.287Z,99853.56
2023-04-16T23:29:06.143Z,99849.16
2023-04-16T23:31:33.058Z,99856.44
2023-04-16T23:34:00.033Z,99846.69
2023-04-16T23:36:27.945Z,99849.78
2023-04-16T23:38:57.509Z,99847.03
2023-04-16T23:41:25.407Z,99846.91
2023-04-16T23:43:52.390Z,99837.84
2023-04-16T23:46:19.267Z,99837.59
2023-04-16T23:48:46.170Z,99838.72
2023-04-16T23:51:14.869Z,99827.13
2023-04-16T23:53:41.921Z,99827.38
2023-04-16T23:56:11.263Z,99833.41
2023-04-16T23:58:40.258Z,99827.44
